createdAt,value
2023-01-15T00:00:59.653Z,100
2023-01-15T00:04:25.127Z,100
2023-01-15T00:07:50.833Z,100
2023-01-15T00:11:16.889Z,100
2023-01-15T00:14:42.861Z,100
2023-01-15T00:18:08.523Z,100
2023-01-15T00:21:36.857Z,100
2023-01-15T00:25:02.759Z,100
2023-01-15T00:28:29.785Z,100
2023-01-15T00:31:57.564Z,100
2023-01-15T00:35:24.175Z,100
2023-01-15T00:38:51.818Z,100
2023-01-15T00:42:20.144Z,100
2023-01-15T00:45:46.408Z,100
2023-01-15T00:49:13.764Z,100
2023-01-15T00:52:40.737Z,100
2023-01-15T00:56:09.081Z,100
2023-01-15T00:59:36.312Z,100
2023-01-15T01:03:02.150Z,100
2023-01-15T01:06:30.893Z,100
2023-01-15T01:09:57.808Z,100
2023-01-15T01:13:24.667Z,100
2023-01-15T01:16:50.731Z,100
2023-01-15T01:20:16.756Z,100
2023-01-15T01:23:43.433Z,100
2023-01-15T01:27:09.524Z,100
2023-01-15T01:30:35.922Z,100
2023-01-15T01:34:02.740Z,100
2023-01-15T01:37:30.186Z,100
2023-01-15T01:40:56.028Z,100
2023-01-15T01:44:22.224Z,99
2023-01-15T01:47:48.150Z,99
2023-01-15T01:51:14.448Z,99
2023-01-15T01:54:40.086Z,99
2023-01-15T01:58:06.110Z,99
2023-01-15T02:01:32.018Z,99
2023-01-15T02:04:57.541Z,99
2023-01-15T02:08:23.324Z,99
2023-01-15T02:11:49.173Z,99
2023-01-15T02:15:15.036Z,99
2023-01-15T02:18:41.003Z,100
2023-01-15T02:22:06.670Z,99
2023-01-15T02:25:32.879Z,99
2023-01-15T02:28:58.958Z,99
2023-01-15T02:32:24.591Z,99
2023-01-15T02:35:50.304Z,99
2023-01-15T02:39:16.030Z,99
2023-01-15T02:42:41.495Z,99
2023-01-15T02:46:07.363Z,99
2023-01-15T02:49:33.140Z,99
2023-01-15T02:52:58.619Z,99
2023-01-15T02:56:24.480Z,99
2023-01-15T02:59:50.519Z,99
2023-01-15T03:03:16.215Z,99
2023-01-15T03:06:41.914Z,99
2023-01-15T03:10:07.668Z,99
2023-01-15T03:13:33.580Z,99
2023-01-15T03:16:59.180Z,99
2023-01-15T03:20:25.072Z,99
2023-01-15T03:23:50.779Z,99
2023-01-15T03:27:16.766Z,99
2023-01-15T03:30:42.784Z,99
2023-01-15T03:34:08.363Z,99
2023-01-15T03:37:34.201Z,99
2023-01-15T03:40:59.850Z,100
2023-01-15T03:44:25.362Z,99
2023-01-15T03:47:51.054Z,99
2023-01-15T03:51:16.889Z,99
2023-01-15T03:54:42.563Z,99
2023-01-15T03:58:08.487Z,99
2023-01-15T04:01:34.380Z,99
2023-01-15T04:05:00.189Z,99
2023-01-15T04:08:25.725Z,99
2023-01-15T04:11:51.971Z,99
2023-01-15T04:15:18.844Z,99
2023-01-15T04:18:44.670Z,99
2023-01-15T04:22:10.210Z,99
2023-01-15T04:25:36.139Z,99
2023-01-15T04:29:01.880Z,99
2023-01-15T04:32:27.582Z,99
2023-01-15T04:35:53.214Z,99
2023-01-15T04:39:18.914Z,99
2023-01-15T04:42:44.939Z,99
2023-01-15T04:46:11.042Z,99
2023-01-15T04:49:37.089Z,99
2023-01-15T04:53:02.742Z,99
2023-01-15T04:56:28.745Z,99
2023-01-15T04:59:54.574Z,99
2023-01-15T05:03:20.226Z,99
2023-01-15T05:06:47.260Z,99
2023-01-15T05:10:13.321Z,99
2023-01-15T05:13:38.883Z,99
2023-01-15T05:17:05.023Z,99
2023-01-15T05:20:30.722Z,99
2023-01-15T05:23:56.177Z,99
2023-01-15T05:27:21.665Z,98
2023-01-15T05:30:47.131Z,95
2023-01-15T05:34:12.594Z,94
2023-01-15T05:37:37.967Z,95
2023-01-15T05:41:03.468Z,96
2023-01-15T05:44:29.025Z,95
2023-01-15T05:47:54.303Z,96
2023-01-15T05:51:19.709Z,95
2023-01-15T05:54:45.048Z,94
2023-01-15T05:58:10.847Z,94
2023-01-15T06:01:36.481Z,94
2023-01-15T06:05:01.922Z,94
2023-01-15T06:08:27.338Z,94
2023-01-15T06:11:52.867Z,94
2023-01-15T06:15:18.464Z,94
2023-01-15T06:18:43.989Z,94
2023-01-15T06:22:10.975Z,94
2023-01-15T06:25:35.129Z,93
2023-01-15T06:29:00.815Z,94
2023-01-15T06:32:26.444Z,93
2023-01-15T06:35:51.834Z,94
2023-01-15T06:39:17.270Z,93
2023-01-15T06:42:42.630Z,93
2023-01-15T06:46:08.081Z,94
2023-01-15T06:49:33.690Z,94
2023-01-15T06:52:59.332Z,94
2023-01-15T06:56:24.851Z,94
2023-01-15T06:59:50.411Z,94
2023-01-15T07:03:16.184Z,94
2023-01-15T07:06:41.752Z,94
2023-01-15T07:10:07.671Z,93
2023-01-15T07:13:33.385Z,93
2023-01-15T07:17:00.520Z,93
2023-01-15T07:20:27.709Z,92
2023-01-15T07:23:53.465Z,93
2023-01-15T07:27:19.260Z,93
2023-01-15T07:30:56.178Z,92
2023-01-15T07:34:21.846Z,92
2023-01-15T07:37:47.868Z,92
2023-01-15T07:41:13.835Z,92
2023-01-15T07:44:39.347Z,91
2023-01-15T07:48:04.954Z,91
2023-01-15T07:51:30.260Z,91
2023-01-15T07:54:55.536Z,91
2023-01-15T07:58:27.600Z,91
2023-01-15T08:01:53.086Z,91
2023-01-15T08:05:18.295Z,90
2023-01-15T08:08:43.946Z,91
2023-01-15T08:12:09.268Z,91
2023-01-15T08:15:35.866Z,92
2023-01-15T08:19:01.639Z,92
2023-01-15T08:22:27.176Z,92
2023-01-15T08:25:53.901Z,92
2023-01-15T08:29:19.321Z,92
2023-01-15T08:32:44.587Z,91
2023-01-15T08:36:09.862Z,91
2023-01-15T08:39:35.148Z,92
2023-01-15T08:43:00.448Z,91
2023-01-15T08:46:25.757Z,91
2023-01-15T08:49:51.535Z,90
2023-01-15T08:53:31.663Z,91
2023-01-15T08:57:01.801Z,92
2023-01-15T09:00:27.592Z,92
2023-01-15T09:03:52.932Z,91
2023-01-15T09:07:20.083Z,90
2023-01-15T09:10:45.357Z,90
2023-01-15T09:14:55.741Z,91
2023-01-15T09:17:35.920Z,91
2023-01-15T09:21:01.185Z,90
2023-01-15T09:24:26.470Z,90
2023-01-15T09:27:51.823Z,90
2023-01-15T09:31:17.119Z,90
2023-01-15T09:34:42.380Z,90
2023-01-15T09:38:07.676Z,90
2023-01-15T09:41:32.995Z,90
2023-01-15T09:44:58.453Z,90
2023-01-15T09:48:23.753Z,91
2023-01-15T09:51:49.140Z,90
2023-01-15T09:55:16.635Z,90
2023-01-15T09:58:41.887Z,89
2023-01-15T10:02:07.128Z,89
2023-01-15T10:05:32.371Z,90
2023-01-15T10:08:57.617Z,90
2023-01-15T10:12:23.220Z,89
2023-01-15T10:15:48.533Z,89
2023-01-15T10:19:13.782Z,89
2023-01-15T10:22:39.044Z,90
2023-01-15T10:26:04.299Z,89
2023-01-15T10:29:29.584Z,89
2023-01-15T10:33:03.258Z,90
2023-01-15T10:36:20.490Z,89
2023-01-15T10:39:45.963Z,89
2023-01-15T10:43:11.506Z,90
2023-01-15T10:46:36.778Z,90
2023-01-15T10:50:02.186Z,90
2023-01-15T10:53:27.485Z,89
2023-01-15T10:56:52.834Z,89
2023-01-15T11:00:18.039Z,90
2023-01-15T11:03:43.298Z,90
2023-01-15T11:07:08.525Z,90
2023-01-15T11:10:34.290Z,91
2023-01-15T11:13:59.509Z,91
2023-01-15T11:17:24.744Z,91
2023-01-15T11:20:50.137Z,90
2023-01-15T11:24:15.488Z,90
2023-01-15T11:27:40.789Z,90
2023-01-15T11:31:06.290Z,90
2023-01-15T11:34:31.688Z,90
2023-01-15T11:37:57.010Z,91
2023-01-15T11:41:22.284Z,90
2023-01-15T11:44:47.665Z,91
2023-01-15T11:48:12.944Z,91
2023-01-15T11:51:38.188Z,91
2023-01-15T11:55:03.465Z,90
2023-01-15T11:58:28.777Z,91
2023-01-15T12:01:54.023Z,90
2023-01-15T12:05:19.254Z,90
2023-01-15T12:08:44.502Z,91
2023-01-15T12:12:09.767Z,91
2023-01-15T12:15:35.030Z,91
2023-01-15T12:19:00.342Z,91
2023-01-15T12:22:25.648Z,91
2023-01-15T12:25:50.893Z,90
2023-01-15T12:29:16.124Z,90
2023-01-15T12:32:41.377Z,91
2023-01-15T12:36:06.612Z,90
2023-01-15T12:39:31.845Z,90
2023-01-15T12:42:57.391Z,90
2023-01-15T12:46:22.568Z,91
2023-01-15T12:49:47.817Z,91
2023-01-15T12:53:13.043Z,91
2023-01-15T12:56:38.278Z,91
2023-01-15T13:00:03.534Z,90
2023-01-15T13:03:28.782Z,90
2023-01-15T13:06:54.028Z,91
2023-01-15T13:10:19.273Z,91
2023-01-15T13:13:44.503Z,90
2023-01-15T13:17:09.750Z,90
2023-01-15T13:20:34.985Z,90
2023-01-15T13:24:00.223Z,90
2023-01-15T13:27:25.467Z,90
2023-01-15T13:30:50.709Z,91
2023-01-15T13:34:15.948Z,90
2023-01-15T13:37:41.178Z,91
2023-01-15T13:41:06.421Z,91
2023-01-15T13:44:31.648Z,91
2023-01-15T13:47:56.890Z,90
2023-01-15T13:51:22.132Z,90
2023-01-15T13:54:47.401Z,90
2023-01-15T13:58:12.636Z,90
2023-01-15T14:01:37.983Z,90
2023-01-15T14:05:03.135Z,90
2023-01-15T14:08:28.368Z,89
2023-01-15T14:11:53.651Z,89
2023-01-15T14:15:18.879Z,90
2023-01-15T14:18:44.098Z,90
2023-01-15T14:22:09.360Z,89
2023-01-15T14:25:34.602Z,90
2023-01-15T14:28:59.858Z,88
2023-01-15T15:05:16.557Z,89
2023-01-15T15:08:41.795Z,89
2023-01-15T15:12:07.031Z,88
2023-01-15T15:15:32.291Z,88
2023-01-15T15:18:57.521Z,88
2023-01-15T15:22:22.765Z,88
2023-01-15T15:25:48.013Z,90
2023-01-15T15:29:13.251Z,89
2023-01-15T15:32:38.491Z,89
2023-01-15T15:36:03.722Z,89
2023-01-15T15:39:28.969Z,88
2023-01-15T15:42:54.207Z,89
2023-01-15T15:46:19.502Z,88
2023-01-15T15:49:44.684Z,88
2023-01-15T15:53:09.940Z,87
2023-01-15T15:56:35.193Z,88
2023-01-15T16:00:00.518Z,88
2023-01-15T16:03:25.666Z,88
2023-01-15T16:06:50.916Z,89
2023-01-15T16:10:16.152Z,89
2023-01-15T16:13:41.391Z,90
2023-01-15T16:17:06.638Z,89
2023-01-15T16:20:31.902Z,90
2023-01-15T16:23:57.166Z,89
2023-01-15T16:27:22.412Z,89
2023-01-15T16:30:47.679Z,89
2023-01-15T16:34:12.892Z,89
2023-01-15T16:37:38.156Z,89
2023-01-15T16:41:03.393Z,89
2023-01-15T16:44:28.618Z,90
2023-01-15T16:47:53.874Z,89
2023-01-15T16:51:19.103Z,89
2023-01-15T16:54:44.369Z,89
2023-01-15T16:58:09.614Z,88
2023-01-15T17:01:34.948Z,88
2023-01-15T17:05:00.211Z,88
2023-01-15T17:08:25.329Z,88
2023-01-15T17:11:50.592Z,89
2023-01-15T17:15:15.843Z,89
2023-01-15T17:18:41.068Z,89
2023-01-15T17:22:06.343Z,89
2023-01-15T17:25:31.615Z,90
2023-01-15T17:28:56.923Z,89
2023-01-15T17:32:22.248Z,90
2023-01-15T17:35:47.522Z,90
2023-01-15T17:39:12.845Z,90
2023-01-15T17:42:38.139Z,90
2023-01-15T17:46:03.568Z,90
2023-01-15T17:49:28.892Z,91
2023-01-15T17:52:54.214Z,90
2023-01-15T17:56:19.492Z,89
2023-01-15T17:59:44.818Z,89
2023-01-15T18:03:10.185Z,89
2023-01-15T18:06:35.443Z,90
2023-01-15T18:10:00.698Z,90
2023-01-15T18:13:25.986Z,89
2023-01-15T18:16:51.288Z,89
2023-01-15T18:20:16.581Z,89
2023-01-15T18:23:41.832Z,89
2023-01-15T18:27:07.215Z,89
2023-01-15T18:30:32.508Z,89
2023-01-15T18:33:57.754Z,89
2023-01-15T18:37:23.128Z,89
2023-01-15T18:40:48.390Z,89
2023-01-15T18:44:13.793Z,90
2023-01-15T18:47:39.018Z,89
2023-01-15T18:51:04.300Z,90
2023-01-15T18:54:29.561Z,89
2023-01-15T18:57:54.809Z,89
2023-01-15T19:01:23.956Z,89
2023-01-15T19:04:49.247Z,90
2023-01-15T19:08:14.521Z,90
2023-01-15T19:11:39.881Z,90
2023-01-15T19:15:05.203Z,90
2023-01-15T19:18:30.550Z,89
2023-01-15T19:21:55.804Z,89
2023-01-15T19:25:21.037Z,89
2023-01-15T19:28:46.380Z,90
2023-01-15T19:32:11.679Z,89
2023-01-15T19:35:36.975Z,89
2023-01-15T19:39:02.301Z,89
2023-01-15T19:42:27.639Z,89
2023-01-15T19:45:52.921Z,89
2023-01-15T19:49:18.259Z,89
2023-01-15T19:52:43.524Z,89
2023-01-15T19:56:08.863Z,89
2023-01-15T19:59:34.115Z,89
2023-01-15T20:02:59.467Z,90
2023-01-15T20:06:24.754Z,89
2023-01-15T20:09:50.029Z,90
2023-01-15T20:13:15.318Z,89
2023-01-15T20:16:40.631Z,89
2023-01-15T20:20:05.911Z,90
2023-01-15T20:23:31.200Z,90
2023-01-15T20:26:58.182Z,91
2023-01-15T20:30:23.494Z,90
2023-01-15T20:33:48.801Z,90
2023-01-15T20:37:14.111Z,90
2023-01-15T20:40:39.364Z,89
2023-01-15T20:44:04.652Z,89
2023-01-15T20:47:29.900Z,90
2023-01-15T20:50:55.185Z,90
2023-01-15T20:54:20.483Z,90
2023-01-15T20:57:45.792Z,89
2023-01-15T21:01:11.235Z,90
2023-01-15T21:04:36.418Z,90
2023-01-15T21:08:01.566Z,90
2023-01-15T21:11:26.809Z,89
2023-01-15T21:14:52.044Z,90
2023-01-15T21:18:17.348Z,89
2023-01-15T21:21:42.619Z,89
2023-01-15T21:25:07.902Z,90
2023-01-15T21:28:33.137Z,91
2023-01-15T21:31:58.424Z,91
2023-01-15T21:35:23.663Z,91
2023-01-15T21:38:48.937Z,90
2023-01-15T21:42:14.180Z,90
2023-01-15T21:45:39.436Z,90
2023-01-15T21:49:04.688Z,89
2023-01-15T21:52:29.969Z,89
2023-01-15T21:55:55.272Z,89
2023-01-15T21:59:21.963Z,89
2023-01-15T22:02:45.880Z,89
2023-01-15T22:06:11.078Z,89
2023-01-15T22:09:36.338Z,89
2023-01-15T22:13:01.595Z,88
2023-01-15T22:16:26.875Z,88
2023-01-15T22:19:52.141Z,88
2023-01-15T22:23:17.365Z,87
2023-01-15T22:26:42.619Z,87
2023-01-15T22:30:07.877Z,87
2023-01-15T22:33:33.143Z,87
2023-01-15T22:36:58.476Z,87
2023-01-15T22:40:23.749Z,86
2023-01-15T22:43:49.012Z,86
2023-01-15T22:47:14.295Z,87
2023-01-15T22:50:39.549Z,86
2023-01-15T22:54:04.825Z,86
2023-01-15T22:57:30.075Z,86
2023-01-15T23:00:55.346Z,86
2023-01-15T23:04:20.666Z,87
2023-01-15T23:07:45.864Z,86
2023-01-15T23:11:11.146Z,87
2023-01-15T23:14:36.412Z,87
2023-01-15T23:18:01.714Z,87
2023-01-15T23:21:26.938Z,87
2023-01-15T23:24:52.201Z,87
2023-01-15T23:28:17.444Z,87
2023-01-15T23:31:42.751Z,87
2023-01-15T23:35:08.050Z,87
2023-01-15T23:38:33.231Z,87
2023-01-15T23:41:58.522Z,87
2023-01-15T23:45:23.780Z,87
2023-01-15T23:48:49.060Z,87
2023-01-15T23:52:14.399Z,87
2023-01-15T23:55:39.593Z,87
2023-01-15T23:59:04.889Z,87
